createdAt,value
2018-06-28T00:00:17.575Z,17.00
2018-06-28T00:02:48.094Z,16.90
2018-06-28T00:05:19.242Z,16.70
2018-06-28T00:07:51.312Z,16.50
2018-06-28T00:10:21.873Z,16.40
2018-06-28T00:12:52.571Z,16.40
2018-06-28T00:15:23.258Z,16.50
2018-06-28T00:17:53.723Z,16.50
2018-06-28T00:20:24.439Z,16.40
2018-06-28T00:22:54.861Z,16.40
2018-06-28T00:25:25.573Z,16.40
2018-06-28T00:27:56.153Z,16.40
2018-06-28T00:30:26.905Z,16.30
2018-06-28T00:32:57.323Z,16.20
2018-06-28T00:35:27.794Z,16.10
2018-06-28T00:37:58.258Z,16.00
2018-06-28T00:40:29.088Z,15.90
2018-06-28T00:42:59.597Z,15.80
2018-06-28T00:45:30.850Z,15.80
2018-06-28T00:48:01.271Z,15.70
2018-06-28T00:50:31.959Z,15.60
2018-06-28T00:53:02.478Z,15.50
2018-06-28T00:55:32.990Z,15.40
2018-06-28T00:58:03.645Z,15.30
2018-06-28T01:00:34.582Z,15.20
2018-06-28T01:03:05.647Z,15.20
2018-06-28T01:05:36.172Z,15.10
2018-06-28T01:08:06.734Z,15.00
2018-06-28T01:10:37.874Z,14.90
2018-06-28T01:13:08.390Z,14.90
2018-06-28T01:15:39.218Z,14.80
2018-06-28T01:18:10.078Z,14.80
2018-06-28T01:20:40.631Z,14.80
2018-06-28T01:23:11.401Z,14.80
2018-06-28T01:25:41.879Z,14.80
2018-06-28T01:28:12.714Z,14.80
2018-06-28T01:30:43.647Z,14.80
2018-06-28T01:33:14.567Z,14.70
2018-06-28T01:35:45.048Z,14.70
2018-06-28T01:38:16.030Z,14.70
2018-06-28T01:40:46.926Z,14.70
2018-06-28T01:43:35.881Z,14.70
2018-06-28T01:46:06.823Z,14.70
2018-06-28T01:48:37.396Z,14.60
2018-06-28T01:51:08.593Z,14.60
2018-06-28T01:53:39.254Z,14.50
2018-06-28T01:56:09.735Z,14.50
2018-06-28T01:58:40.318Z,14.50
2018-06-28T02:01:10.998Z,14.50
2018-06-28T02:03:41.565Z,14.50
2018-06-28T02:08:42.360Z,14.50
2018-06-28T02:11:13.302Z,14.40
2018-06-28T02:13:44.519Z,14.40
2018-06-28T02:16:15.626Z,14.40
2018-06-28T02:21:16.408Z,14.30
2018-06-28T02:23:47.254Z,14.20
2018-06-28T02:26:17.728Z,14.20
2018-06-28T02:28:48.243Z,14.20
2018-06-28T02:31:18.878Z,14.10
2018-06-28T02:33:49.858Z,14.00
2018-06-28T02:38:50.409Z,14.00
2018-06-28T02:41:21.322Z,13.90
2018-06-28T02:43:51.829Z,13.90
2018-06-28T02:46:22.670Z,13.80
2018-06-28T02:48:53.725Z,13.70
2018-06-28T02:51:24.246Z,13.70
2018-06-28T02:56:24.782Z,13.60
2018-06-28T02:58:55.405Z,13.60
2018-06-28T03:01:26.402Z,13.60
2018-06-28T03:03:57.258Z,13.60
2018-06-28T03:06:27.708Z,13.60
2018-06-28T03:11:28.895Z,13.60
2018-06-28T03:13:59.547Z,13.60
2018-06-28T03:19:00.728Z,13.60
2018-06-28T03:21:31.261Z,13.70
2018-06-28T03:24:02.222Z,13.70
2018-06-28T03:26:32.679Z,13.70
2018-06-28T03:31:34.060Z,13.80
2018-06-28T03:34:06.090Z,13.90
2018-06-28T03:36:36.577Z,13.90
2018-06-28T03:41:40.754Z,13.90
2018-06-28T03:44:13.563Z,14.00
2018-06-28T03:46:45.478Z,14.00
2018-06-28T03:49:16.286Z,14.00
2018-06-28T03:51:46.677Z,14.10
2018-06-28T03:54:17.069Z,14.00
2018-06-28T03:56:48.277Z,14.10
2018-06-28T03:59:19.014Z,14.20
2018-06-28T04:01:49.498Z,14.30
2018-06-28T04:04:20.674Z,14.40
2018-06-28T04:06:51.402Z,14.40
2018-06-28T04:09:22.205Z,14.40
2018-06-28T04:14:22.990Z,14.60
2018-06-28T04:16:54.165Z,14.60
2018-06-28T04:19:25.102Z,14.70
2018-06-28T04:21:55.592Z,14.90
2018-06-28T04:24:29.476Z,15.00
2018-06-28T04:26:59.982Z,15.00
2018-06-28T04:29:30.453Z,15.10
2018-06-28T04:32:01.507Z,15.10
2018-06-28T04:34:32.030Z,15.20
2018-06-28T04:37:02.928Z,15.30
2018-06-28T04:39:33.753Z,15.40
2018-06-28T04:42:04.847Z,15.50
2018-06-28T04:44:36.151Z,15.70
2018-06-28T04:47:06.694Z,15.80
2018-06-28T04:49:37.454Z,16.00
2018-06-28T04:52:08.090Z,16.00
2018-06-28T04:54:38.999Z,16.10
2018-06-28T04:57:10.086Z,16.20
2018-06-28T04:59:40.559Z,16.40
2018-06-28T05:02:11.797Z,16.50
2018-06-28T05:04:42.515Z,16.60
2018-06-28T05:07:13.419Z,16.70
2018-06-28T05:09:44.497Z,16.80
2018-06-28T05:12:15.481Z,16.90
2018-06-28T05:14:45.918Z,17.10
2018-06-28T05:17:17.950Z,17.10
2018-06-28T05:19:48.662Z,17.30
2018-06-28T05:22:19.507Z,17.40
2018-06-28T05:24:50.212Z,17.50
2018-06-28T05:27:20.876Z,17.60
2018-06-28T05:29:51.582Z,17.60
2018-06-28T05:32:22.726Z,17.80
2018-06-28T05:34:53.210Z,17.90
2018-06-28T05:37:23.710Z,18.00
2018-06-28T05:39:54.562Z,18.10
2018-06-28T05:42:25.590Z,18.10
2018-06-28T05:44:56.177Z,18.20
2018-06-28T05:47:28.727Z,18.20
2018-06-28T05:49:59.502Z,18.30
2018-06-28T05:55:00.216Z,18.50
2018-06-28T05:57:31.358Z,18.60
2018-06-28T06:00:02.884Z,18.70
2018-06-28T06:02:33.591Z,18.90
2018-06-28T06:05:04.506Z,19.00
2018-06-28T06:07:35.262Z,19.20
2018-06-28T06:10:06.409Z,19.30
2018-06-28T06:12:37.334Z,19.30
2018-06-28T06:17:48.617Z,19.30
2018-06-28T06:20:19.964Z,19.40
2018-06-28T06:22:50.778Z,19.50
2018-06-28T06:25:21.495Z,19.60
2018-06-28T06:27:53.358Z,19.60
2018-06-28T06:30:24.104Z,19.60
2018-06-28T06:32:55.454Z,19.80
2018-06-28T06:35:26.614Z,19.80
2018-06-28T06:37:57.182Z,19.80
2018-06-28T06:40:27.843Z,19.90
2018-06-28T06:42:58.605Z,20.00
2018-06-28T06:45:30.950Z,20.20
2018-06-28T06:48:01.570Z,20.40
2018-06-28T06:50:40.898Z,20.50
2018-06-28T06:53:13.596Z,20.50
2018-06-28T06:55:43.978Z,20.30
2018-06-28T06:58:15.082Z,20.50
2018-06-28T07:00:45.994Z,20.60
2018-06-28T07:03:17.293Z,20.70
2018-06-28T07:05:48.481Z,20.70
2018-06-28T07:08:18.948Z,20.70
2018-06-28T07:10:49.690Z,20.90
2018-06-28T07:13:20.581Z,21.10
2018-06-28T07:15:51.139Z,21.20
2018-06-28T07:18:22.109Z,21.30
2018-06-28T07:20:52.616Z,21.40
2018-06-28T07:23:23.188Z,21.50
2018-06-28T07:25:53.969Z,21.50
2018-06-28T07:28:32.537Z,21.50
2018-06-28T07:31:06.243Z,21.50
2018-06-28T07:33:40.174Z,21.50
2018-06-28T07:36:14.840Z,21.60
2018-06-28T07:41:17.855Z,21.50
2018-06-28T07:43:48.770Z,21.60
2018-06-28T07:46:19.689Z,21.60
2018-06-28T07:48:50.559Z,21.90
2018-06-28T07:51:24.305Z,21.80
2018-06-28T07:53:55.550Z,22.00
2018-06-28T07:56:31.307Z,21.90
2018-06-28T07:59:05.039Z,21.90
2018-06-28T08:01:40.173Z,21.90
2018-06-28T08:04:11.832Z,22.00
2018-06-28T08:06:45.504Z,22.20
2018-06-28T08:09:16.917Z,22.30
2018-06-28T08:11:49.892Z,22.20
2018-06-28T08:14:21.355Z,22.20
2018-06-28T08:16:51.888Z,22.30
2018-06-28T08:19:22.702Z,22.40
2018-06-28T08:21:53.366Z,22.40
2018-06-28T08:24:23.838Z,22.60
2018-06-28T08:26:54.582Z,22.60
2018-06-28T08:29:25.178Z,22.70
2018-06-28T08:31:56.190Z,22.70
2018-06-28T08:34:27.390Z,22.70
2018-06-28T08:36:57.844Z,22.80
2018-06-28T08:39:28.844Z,22.80
2018-06-28T08:41:59.319Z,23.10
2018-06-28T08:44:30.647Z,23.20
2018-06-28T08:47:01.518Z,23.30
2018-06-28T08:49:31.970Z,23.40
2018-06-28T08:52:02.402Z,23.40
2018-06-28T08:54:33.192Z,23.40
2018-06-28T08:57:03.658Z,23.50
2018-06-28T08:59:34.369Z,23.50
2018-06-28T09:02:05.053Z,23.60
2018-06-28T09:04:35.815Z,23.50
2018-06-28T09:07:06.642Z,23.40
2018-06-28T09:09:37.120Z,23.60
2018-06-28T09:12:07.681Z,23.70
2018-06-28T09:14:38.440Z,23.80
2018-06-28T09:17:09.017Z,24.00
2018-06-28T09:19:39.467Z,24.00
2018-06-28T09:22:10.372Z,24.00
2018-06-28T09:24:40.832Z,23.90
2018-06-28T09:27:11.294Z,24.00
2018-06-28T09:29:41.958Z,24.10
2018-06-28T09:32:12.485Z,24.40
2018-06-28T09:34:43.250Z,24.40
2018-06-28T09:37:13.996Z,24.40
2018-06-28T09:39:44.536Z,24.30
2018-06-28T09:42:15.015Z,24.30
2018-06-28T09:44:45.785Z,24.50
2018-06-28T09:47:16.638Z,24.70
2018-06-28T09:49:47.521Z,24.60
2018-06-28T09:52:19.211Z,24.70
2018-06-28T09:54:49.815Z,24.60
2018-06-28T09:57:20.925Z,24.60
2018-06-28T09:59:51.355Z,24.70
2018-06-28T10:02:22.554Z,24.90
2018-06-28T10:04:53.443Z,25.00
2018-06-28T10:07:23.870Z,25.20
2018-06-28T10:09:54.387Z,25.30
2018-06-28T10:12:25.590Z,25.50
2018-06-28T10:14:56.041Z,25.50
2018-06-28T10:17:26.814Z,25.40
2018-06-28T10:19:57.517Z,25.60
2018-06-28T10:22:27.940Z,25.50
2018-06-28T10:24:59.856Z,25.70
2018-06-28T10:27:30.690Z,25.80
2018-06-28T10:30:01.177Z,25.90
2018-06-28T10:32:31.613Z,26.10
2018-06-28T10:35:02.551Z,26.30
2018-06-28T10:37:33.089Z,26.40
2018-06-28T10:40:04.272Z,26.40
2018-06-28T10:42:34.749Z,26.20
2018-06-28T10:45:05.490Z,26.00
2018-06-28T10:47:36.729Z,26.40
2018-06-28T10:50:07.441Z,26.70
2018-06-28T10:52:37.952Z,26.90
2018-06-28T10:55:09.096Z,27.30
2018-06-28T10:57:39.522Z,27.50
2018-06-28T11:00:09.975Z,27.60
2018-06-28T11:02:40.918Z,27.70
2018-06-28T11:05:11.438Z,27.90
2018-06-28T11:07:41.888Z,27.90
2018-06-28T11:10:12.623Z,27.90
2018-06-28T11:12:43.040Z,27.10
2018-06-28T11:15:13.561Z,27.00
2018-06-28T11:17:44.483Z,27.20
2018-06-28T11:20:15.382Z,27.20
2018-06-28T11:22:45.999Z,27.20
2018-06-28T11:25:16.733Z,27.50
2018-06-28T11:27:47.167Z,27.90
2018-06-28T11:30:17.768Z,28.60
2018-06-28T11:32:48.692Z,28.70
2018-06-28T11:35:19.138Z,29.30
2018-06-28T11:37:49.855Z,29.40
2018-06-28T11:40:20.583Z,29.50
2018-06-28T11:42:51.334Z,29.90
2018-06-28T11:45:22.233Z,30.10
2018-06-28T11:47:53.058Z,30.30
2018-06-28T11:50:23.493Z,31.30
2018-06-28T11:52:54.204Z,31.00
2018-06-28T11:55:27.513Z,30.70
2018-06-28T11:57:58.126Z,30.80
2018-06-28T12:00:28.904Z,30.80
2018-06-28T12:02:59.458Z,31.60
2018-06-28T12:05:30.709Z,32.30
2018-06-28T12:08:08.580Z,32.10
2018-06-28T12:10:39.304Z,32.60
2018-06-28T12:13:10.101Z,32.70
2018-06-28T12:15:41.231Z,32.70
2018-06-28T12:18:11.860Z,32.40
2018-06-28T12:20:42.665Z,31.60
2018-06-28T12:23:13.116Z,32.60
2018-06-28T12:25:44.241Z,33.40
2018-06-28T12:28:17.909Z,33.60
2018-06-28T12:30:49.991Z,34.80
2018-06-28T12:33:20.950Z,35.20
2018-06-28T12:35:57.617Z,35.00
2018-06-28T12:38:29.169Z,34.60
2018-06-28T12:40:59.903Z,34.20
2018-06-28T12:43:31.270Z,34.50
2018-06-28T12:46:02.980Z,33.90
2018-06-28T12:48:33.594Z,33.00
2018-06-28T12:51:04.207Z,33.30
2018-06-28T12:53:35.127Z,33.50
2018-06-28T12:56:27.825Z,34.10
2018-06-28T12:59:00.105Z,34.50
2018-06-28T13:01:31.229Z,35.20
2018-06-28T13:04:02.009Z,35.20
2018-06-28T13:06:32.614Z,35.20
2018-06-28T13:09:03.848Z,35.80
2018-06-28T13:11:34.416Z,35.50
2018-06-28T13:14:05.145Z,35.30
2018-06-28T13:16:35.987Z,36.00
2018-06-28T13:19:06.472Z,36.10
2018-06-28T13:21:37.148Z,36.00
2018-06-28T13:24:08.210Z,35.50
2018-06-28T13:26:39.699Z,35.80
2018-06-28T13:29:10.642Z,36.10
2018-06-28T13:31:41.158Z,37.00
2018-06-28T13:34:11.957Z,36.70
2018-06-28T13:36:42.768Z,37.20
2018-06-28T13:39:13.389Z,36.20
2018-06-28T13:44:37.972Z,36.70
2018-06-28T13:47:08.864Z,36.70
2018-06-28T13:49:39.473Z,37.10
2018-06-28T13:52:10.450Z,37.30
2018-06-28T13:54:42.813Z,36.20
2018-06-28T13:57:16.309Z,36.20
2018-06-28T13:59:47.146Z,37.10
2018-06-28T14:02:17.722Z,38.30
2018-06-28T14:04:49.399Z,39.10
2018-06-28T14:07:20.225Z,38.70
2018-06-28T14:09:53.182Z,38.10
2018-06-28T14:12:25.010Z,39.40
2018-06-28T14:14:55.431Z,38.40
2018-06-28T14:17:25.983Z,38.30
2018-06-28T14:19:56.766Z,37.60
2018-06-28T14:22:27.293Z,38.30
2018-06-28T14:24:57.857Z,38.20
2018-06-28T14:27:29.105Z,38.00
2018-06-28T14:29:59.963Z,38.20
2018-06-28T14:32:30.526Z,37.80
2018-06-28T14:35:01.380Z,37.30
2018-06-28T14:37:31.958Z,37.90
2018-06-28T14:40:02.571Z,38.20
2018-06-28T14:42:33.763Z,39.00
2018-06-28T14:45:04.845Z,39.00
2018-06-28T14:47:38.986Z,38.90
2018-06-28T14:50:09.962Z,38.30
2018-06-28T14:52:40.686Z,38.70
2018-06-28T14:55:12.209Z,38.70
2018-06-28T14:57:43.001Z,38.20
2018-06-28T15:00:15.107Z,38.10
2018-06-28T15:02:46.074Z,38.70
2018-06-28T15:05:17.375Z,39.20
2018-06-28T15:07:48.140Z,39.60
2018-06-28T15:10:20.156Z,39.00
2018-06-28T15:12:51.194Z,37.80
2018-06-28T15:15:21.962Z,38.20
2018-06-28T15:17:52.879Z,38.70
2018-06-28T15:20:23.541Z,38.50
2018-06-28T15:22:54.061Z,39.00
2018-06-28T15:25:24.842Z,38.70
2018-06-28T15:27:55.266Z,39.90
2018-06-28T15:30:26.219Z,40.60
2018-06-28T15:32:56.892Z,41.80
2018-06-28T15:35:28.642Z,41.00
2018-06-28T15:37:59.065Z,40.20
2018-06-28T15:40:29.590Z,39.70
2018-06-28T15:43:00.482Z,40.60
2018-06-28T15:45:31.321Z,39.90
2018-06-28T15:48:02.277Z,39.50
2018-06-28T15:50:35.805Z,40.30
2018-06-28T15:53:08.622Z,41.00
2018-06-28T15:55:39.712Z,39.40
2018-06-28T15:58:11.405Z,38.10
2018-06-28T16:00:42.163Z,38.70
2018-06-28T16:03:12.934Z,38.70
2018-06-28T16:05:43.945Z,39.30
2018-06-28T16:08:15.246Z,39.70
2018-06-28T16:10:46.158Z,38.90
2018-06-28T16:13:17.124Z,38.50
2018-06-28T16:15:47.708Z,38.90
2018-06-28T16:18:18.655Z,39.90
2018-06-28T16:20:50.039Z,40.00
2018-06-28T16:23:20.602Z,39.40
2018-06-28T16:28:21.213Z,37.20
2018-06-28T16:30:52.181Z,36.90
2018-06-28T16:33:23.073Z,36.90
2018-06-28T16:35:53.854Z,37.50
2018-06-28T16:38:24.401Z,37.60
2018-06-28T16:40:55.353Z,38.60
2018-06-28T16:43:26.445Z,39.10
2018-06-28T16:45:56.966Z,39.10
2018-06-28T16:48:27.513Z,38.10
2018-06-28T16:50:58.258Z,36.80
2018-06-28T16:53:28.910Z,36.90
2018-06-28T16:55:59.685Z,37.80
2018-06-28T16:58:30.106Z,37.80
2018-06-28T17:01:02.152Z,36.80
2018-06-28T17:03:35.201Z,37.30
2018-06-28T17:06:06.873Z,37.40
2018-06-28T17:08:37.647Z,37.00
2018-06-28T17:11:09.133Z,36.70
2018-06-28T17:13:40.762Z,36.60
2018-06-28T17:16:11.786Z,37.40
2018-06-28T17:18:42.959Z,37.00
2018-06-28T17:21:14.900Z,35.90
2018-06-28T17:23:45.657Z,35.90
2018-06-28T17:26:16.221Z,36.80
2018-06-28T17:28:46.877Z,36.60
2018-06-28T17:31:18.088Z,36.00
2018-06-28T17:33:48.598Z,35.50
2018-06-28T17:36:19.266Z,35.30
2018-06-28T17:38:50.072Z,34.90
2018-06-28T17:41:20.596Z,35.50
2018-06-28T17:43:54.045Z,35.40
2018-06-28T17:46:24.742Z,35.70
2018-06-28T17:48:55.289Z,35.90
2018-06-28T17:51:25.743Z,36.10
2018-06-28T17:53:56.511Z,35.70
2018-06-28T17:56:27.069Z,35.10
2018-06-28T17:58:57.629Z,35.00
2018-06-28T18:01:28.598Z,34.70
2018-06-28T18:03:59.193Z,34.80
2018-06-28T18:06:29.810Z,35.30
2018-06-28T18:09:00.806Z,34.80
2018-06-28T18:11:31.503Z,34.90
2018-06-28T18:14:02.234Z,34.50
2018-06-28T18:16:33.231Z,34.50
2018-06-28T18:19:04.653Z,34.00
2018-06-28T18:21:40.542Z,34.00
2018-06-28T18:24:18.163Z,33.60
2018-06-28T18:26:48.826Z,33.40
2018-06-28T18:29:19.686Z,33.30
2018-06-28T18:31:50.304Z,33.20
2018-06-28T18:34:20.942Z,33.40
2018-06-28T18:36:51.837Z,33.50
2018-06-28T18:39:22.340Z,33.40
2018-06-28T18:41:52.856Z,32.60
2018-06-28T18:44:23.557Z,33.10
2018-06-28T18:46:54.374Z,33.70
2018-06-28T18:49:24.829Z,33.10
2018-06-28T18:51:55.481Z,32.40
2018-06-28T18:54:25.933Z,32.60
2018-06-28T18:56:56.425Z,32.70
2018-06-28T18:59:28.666Z,32.50
2018-06-28T19:01:59.229Z,32.30
2018-06-28T19:04:29.682Z,32.40
2018-06-28T19:07:00.293Z,32.20
2018-06-28T19:09:35.966Z,31.40
2018-06-28T19:12:06.602Z,31.30
2018-06-28T19:14:42.529Z,31.10
2018-06-28T19:17:13.322Z,31.10
2018-06-28T19:19:44.450Z,31.00
2018-06-28T19:22:20.415Z,30.80
2018-06-28T19:24:51.941Z,30.40
2018-06-28T19:27:22.521Z,29.90
2018-06-28T19:29:58.335Z,29.30
2018-06-28T19:32:32.159Z,28.60
2018-06-28T19:35:03.442Z,28.00
2018-06-28T19:37:39.303Z,27.20
2018-06-28T19:40:15.926Z,26.60
2018-06-28T19:42:51.860Z,26.20
2018-06-28T19:45:22.695Z,25.60
2018-06-28T19:47:53.771Z,25.00
2018-06-28T19:50:29.795Z,24.70
2018-06-28T19:53:05.899Z,24.60
2018-06-28T19:55:36.992Z,24.30
2018-06-28T19:58:07.728Z,24.00
2018-06-28T20:00:43.719Z,23.80
2018-06-28T20:03:19.106Z,23.60
2018-06-28T20:05:50.153Z,23.50
2018-06-28T20:08:21.048Z,23.30
2018-06-28T20:13:27.406Z,23.00
2018-06-28T20:16:03.024Z,22.80
2018-06-28T20:18:38.727Z,22.70
2018-06-28T20:21:10.040Z,22.50
2018-06-28T20:23:40.716Z,22.40
2018-06-28T20:26:16.367Z,22.30
2018-06-28T20:28:52.400Z,22.10
2018-06-28T20:31:28.824Z,22.00
2018-06-28T20:34:04.705Z,21.80
2018-06-28T20:36:35.590Z,21.70
2018-06-28T20:42:10.448Z,21.60
2018-06-28T20:44:40.891Z,21.50
2018-06-28T20:47:11.408Z,21.40
2018-06-28T20:49:42.202Z,21.30
2018-06-28T20:52:12.809Z,21.20
2018-06-28T20:54:43.446Z,21.00
2018-06-28T20:57:13.820Z,20.90
2018-06-28T20:59:44.511Z,20.80
2018-06-28T21:02:16.059Z,20.70
2018-06-28T21:04:46.632Z,20.60
2018-06-28T21:07:17.152Z,20.50
2018-06-28T21:09:48.517Z,20.30
2018-06-28T21:12:18.925Z,20.20
2018-06-28T21:14:49.388Z,20.10
2018-06-28T21:17:19.778Z,20.10
2018-06-28T21:19:51.036Z,20.10
2018-06-28T21:22:22.751Z,20.00
2018-06-28T21:24:53.180Z,19.90
2018-06-28T21:27:23.561Z,19.80
2018-06-28T21:29:54.204Z,19.70
2018-06-28T21:32:24.590Z,19.70
2018-06-28T21:34:55.215Z,19.50
2018-06-28T21:37:26.008Z,19.60
2018-06-28T21:39:56.861Z,19.60
2018-06-28T21:42:27.202Z,19.50
2018-06-28T21:44:57.993Z,19.40
2018-06-28T21:47:28.394Z,19.40
2018-06-28T21:49:58.916Z,19.30
2018-06-28T21:52:30.555Z,19.20
2018-06-28T21:55:01.235Z,19.10
2018-06-28T21:57:31.809Z,19.00
2018-06-28T22:00:02.799Z,19.00
2018-06-28T22:02:34.045Z,18.90
2018-06-28T22:05:04.668Z,18.90
2018-06-28T22:07:35.569Z,18.80
2018-06-28T22:10:06.419Z,18.80
2018-06-28T22:12:37.000Z,18.60
2018-06-28T22:15:11.884Z,18.70
2018-06-28T22:17:42.613Z,18.70
2018-06-28T22:20:13.205Z,18.70
2018-06-28T22:22:44.177Z,18.60
2018-06-28T22:25:15.155Z,18.50
2018-06-28T22:27:45.548Z,18.40
2018-06-28T22:30:15.893Z,18.30
2018-06-28T22:32:46.250Z,18.20
2018-06-28T22:35:17.106Z,18.20
2018-06-28T22:37:48.329Z,18.10
2018-06-28T22:40:19.121Z,18.10
2018-06-28T22:42:49.861Z,18.00
2018-06-28T22:45:20.337Z,18.00
2018-06-28T22:47:51.788Z,18.00
2018-06-28T22:50:22.459Z,17.90
2018-06-28T22:52:53.306Z,17.90
2018-06-28T22:55:24.077Z,17.80
2018-06-28T22:57:55.228Z,17.70
2018-06-28T23:00:31.048Z,17.60
2018-06-28T23:03:01.657Z,17.60
2018-06-28T23:05:32.223Z,17.70
2018-06-28T23:08:03.015Z,17.80
2018-06-28T23:10:33.630Z,17.80
2018-06-28T23:13:04.143Z,17.80
2018-06-28T23:15:35.294Z,17.70
2018-06-28T23:18:06.178Z,17.70
2018-06-28T23:20:37.369Z,17.70
2018-06-28T23:23:08.168Z,17.60
2018-06-28T23:25:38.558Z,17.60
2018-06-28T23:28:08.989Z,17.50
2018-06-28T23:30:39.562Z,17.40
2018-06-28T23:33:10.252Z,17.40
2018-06-28T23:35:40.864Z,17.30
2018-06-28T23:38:11.689Z,17.30
2018-06-28T23:40:42.114Z,17.30
2018-06-28T23:43:12.770Z,17.20
2018-06-28T23:45:43.229Z,17.20
2018-06-28T23:48:13.707Z,17.10
2018-06-28T23:50:44.205Z,17.10
2018-06-28T23:53:14.942Z,17.10
2018-06-28T23:55:45.446Z,17.00
2018-06-28T23:58:15.965Z,17.00
